createdAt,value
2018-07-09T00:00:26.594Z,63.09
2018-07-09T00:02:31.336Z,63.25
2018-07-09T00:04:36.581Z,63.60
2018-07-09T00:06:41.538Z,63.93
2018-07-09T00:08:46.394Z,64.17
2018-07-09T00:11:07.685Z,63.75
2018-07-09T00:13:12.662Z,64.90
2018-07-09T00:15:17.527Z,64.63
2018-07-09T00:17:21.955Z,64.54
2018-07-09T00:19:26.795Z,64.45
2018-07-09T00:21:32.152Z,64.82
2018-07-09T00:23:36.942Z,65.60
2018-07-09T00:25:41.874Z,65.59
2018-07-09T00:27:46.793Z,65.16
2018-07-09T00:29:51.654Z,65.16
2018-07-09T00:31:56.460Z,65.34
2018-07-09T00:34:01.430Z,65.26
2018-07-09T00:36:06.292Z,65.12
2018-07-09T00:38:11.158Z,65.70
2018-07-09T00:40:16.080Z,65.70
2018-07-09T00:42:21.099Z,66.21
2018-07-09T00:44:26.436Z,65.98
2018-07-09T00:46:31.234Z,65.86
2018-07-09T00:48:36.066Z,66.00
2018-07-09T00:50:40.861Z,66.29
2018-07-09T00:52:46.001Z,66.36
2018-07-09T00:54:50.696Z,66.20
2018-07-09T00:56:55.484Z,67.06
2018-07-09T00:59:00.455Z,66.68
2018-07-09T01:01:05.532Z,66.64
2018-07-09T01:03:11.322Z,66.87
2018-07-09T01:05:16.194Z,67.38
2018-07-09T01:07:21.087Z,67.05
2018-07-09T01:09:25.946Z,67.23
2018-07-09T01:11:46.474Z,67.40
2018-07-09T01:13:51.957Z,67.67
2018-07-09T01:15:56.875Z,67.46
2018-07-09T01:18:01.744Z,67.97
2018-07-09T01:20:06.591Z,68.33
2018-07-09T01:22:11.447Z,68.29
2018-07-09T01:24:16.283Z,68.41
2018-07-09T01:26:21.152Z,68.34
2018-07-09T01:28:25.936Z,68.27
2018-07-09T01:30:36.431Z,68.79
2018-07-09T01:32:41.664Z,68.92
2018-07-09T01:34:46.700Z,68.81
2018-07-09T01:36:51.609Z,69.25
2018-07-09T01:38:56.467Z,69.39
2018-07-09T01:41:01.243Z,69.74
2018-07-09T01:43:06.125Z,69.73
2018-07-09T01:45:11.049Z,69.30
2018-07-09T01:47:15.749Z,69.28
2018-07-09T01:51:21.767Z,69.46
2018-07-09T01:53:26.547Z,69.79
2018-07-09T01:55:31.322Z,69.54
2018-07-09T01:57:36.195Z,70.09
2018-07-09T01:59:41.053Z,70.12
2018-07-09T02:01:45.902Z,71.46
2018-07-09T02:03:50.796Z,71.02
2018-07-09T02:05:55.569Z,70.37
2018-07-09T02:08:00.315Z,70.96
2018-07-09T02:10:05.060Z,71.51
2018-07-09T02:12:09.879Z,71.66
2018-07-09T02:14:14.617Z,71.68
2018-07-09T02:16:19.460Z,71.30
2018-07-09T02:18:24.261Z,71.76
2018-07-09T02:20:29.474Z,72.39
2018-07-09T02:22:34.130Z,72.46
2018-07-09T02:24:40.302Z,72.86
2018-07-09T02:26:45.039Z,73.25
2018-07-09T02:28:50.501Z,72.42
2018-07-09T02:30:55.365Z,72.48
2018-07-09T02:33:00.223Z,73.14
2018-07-09T02:35:04.964Z,73.04
2018-07-09T02:37:09.831Z,72.66
2018-07-09T02:39:14.492Z,72.89
2018-07-09T02:41:19.196Z,72.23
2018-07-09T02:43:24.018Z,73.40
2018-07-09T02:45:28.790Z,72.98
2018-07-09T02:47:34.357Z,73.80
2018-07-09T02:49:39.097Z,73.86
2018-07-09T02:51:43.819Z,73.79
2018-07-09T02:53:48.650Z,74.11
2018-07-09T02:55:53.371Z,74.04
2018-07-09T02:57:58.092Z,73.81
2018-07-09T03:00:02.894Z,73.69
2018-07-09T03:02:07.683Z,73.44
2018-07-09T03:04:12.542Z,74.06
2018-07-09T03:06:17.406Z,74.43
2018-07-09T03:08:22.196Z,74.76
2018-07-09T03:10:27.045Z,74.24
2018-07-09T03:12:31.877Z,75.17
2018-07-09T03:14:36.750Z,74.47
2018-07-09T03:16:41.399Z,74.28
2018-07-09T03:18:46.218Z,74.28
2018-07-09T03:20:51.232Z,74.71
2018-07-09T03:22:56.096Z,75.07
2018-07-09T03:25:01.035Z,75.30
2018-07-09T03:27:06.004Z,75.25
2018-07-09T03:29:11.063Z,75.08
2018-07-09T03:31:15.839Z,75.39
2018-07-09T03:33:20.810Z,75.92
2018-07-09T03:35:25.991Z,76.40
2018-07-09T03:37:31.038Z,76.58
2018-07-09T03:39:36.242Z,76.34
2018-07-09T03:41:41.257Z,76.12
2018-07-09T03:43:46.322Z,76.67
2018-07-09T03:45:51.592Z,77.17
2018-07-09T03:47:56.704Z,76.70
2018-07-09T03:50:01.764Z,75.96
2018-07-09T03:52:06.902Z,76.19
2018-07-09T03:56:54.532Z,77.09
2018-07-09T03:58:59.460Z,76.87
2018-07-09T04:01:04.253Z,77.37
2018-07-09T04:03:09.093Z,78.12
2018-07-09T04:05:13.812Z,77.45
2018-07-09T04:07:18.535Z,77.86
2018-07-09T04:09:23.246Z,77.90
2018-07-09T04:11:28.040Z,78.04
2018-07-09T04:13:33.276Z,77.43
2018-07-09T04:15:38.057Z,77.22
2018-07-09T04:17:42.877Z,77.45
2018-07-09T04:19:47.634Z,77.56
2018-07-09T04:21:52.384Z,76.78
2018-07-09T04:23:57.248Z,77.27
2018-07-09T04:26:02.173Z,76.87
2018-07-09T04:28:07.210Z,77.14
2018-07-09T04:30:11.912Z,76.97
2018-07-09T04:32:16.618Z,77.93
2018-07-09T04:34:21.311Z,78.12
2018-07-09T04:36:26.054Z,77.81
2018-07-09T04:38:31.228Z,77.64
2018-07-09T04:40:35.930Z,77.46
2018-07-09T04:42:40.845Z,77.37
2018-07-09T04:44:45.606Z,77.37
2018-07-09T04:46:50.690Z,77.41
2018-07-09T04:48:55.468Z,77.04
2018-07-09T04:51:00.197Z,77.17
2018-07-09T04:53:05.709Z,77.27
2018-07-09T04:55:15.415Z,77.17
2018-07-09T04:57:20.143Z,77.13
2018-07-09T04:59:24.888Z,76.82
2018-07-09T05:01:29.962Z,76.97
2018-07-09T05:03:34.717Z,77.28
2018-07-09T05:05:39.542Z,77.39
2018-07-09T05:07:44.530Z,77.47
2018-07-09T05:09:49.378Z,76.69
2018-07-09T05:11:54.188Z,75.95
2018-07-09T05:13:59.424Z,76.08
2018-07-09T05:16:04.732Z,76.71
2018-07-09T05:18:09.590Z,76.38
2018-07-09T05:20:14.496Z,76.31
2018-07-09T05:22:19.351Z,76.43
2018-07-09T05:24:26.211Z,75.33
2018-07-09T05:26:31.180Z,74.44
2018-07-09T05:28:35.901Z,75.98
2018-07-09T05:30:40.928Z,75.68
2018-07-09T05:32:45.743Z,76.31
2018-07-09T05:34:50.618Z,75.04
2018-07-09T05:36:55.411Z,74.83
2018-07-09T05:39:00.273Z,74.59
2018-07-09T05:41:05.130Z,73.94
2018-07-09T05:43:09.938Z,72.81
2018-07-09T05:45:15.221Z,72.89
2018-07-09T05:47:20.167Z,73.41
2018-07-09T05:49:25.438Z,73.47
2018-07-09T05:51:30.477Z,73.41
2018-07-09T05:53:35.287Z,73.28
2018-07-09T05:55:40.106Z,73.63
2018-07-09T05:57:45.013Z,72.54
2018-07-09T05:59:49.916Z,72.07
2018-07-09T06:01:54.669Z,72.58
2018-07-09T06:03:59.489Z,72.52
2018-07-09T06:06:04.512Z,72.62
2018-07-09T06:08:09.516Z,71.96
2018-07-09T06:10:14.586Z,71.70
2018-07-09T06:12:19.569Z,70.81
2018-07-09T06:14:24.407Z,70.99
2018-07-09T06:16:29.597Z,70.41
2018-07-09T06:18:34.402Z,71.08
2018-07-09T06:20:39.350Z,71.04
2018-07-09T06:22:44.421Z,70.71
2018-07-09T06:24:50.113Z,69.51
2018-07-09T06:26:55.016Z,68.12
2018-07-09T06:29:00.182Z,67.44
2018-07-09T06:31:05.225Z,67.52
2018-07-09T06:33:10.413Z,68.64
2018-07-09T06:35:15.257Z,66.26
2018-07-09T06:37:21.701Z,65.96
2018-07-09T06:39:26.658Z,64.89
2018-07-09T06:41:31.834Z,64.25
2018-07-09T06:43:36.917Z,64.80
2018-07-09T06:45:41.858Z,63.96
2018-07-09T06:47:46.892Z,64.61
2018-07-09T06:49:51.814Z,63.60
2018-07-09T06:51:56.714Z,64.04
2018-07-09T06:54:01.500Z,64.03
2018-07-09T06:56:06.486Z,64.10
2018-07-09T06:58:11.848Z,64.54
2018-07-09T07:00:16.749Z,64.79
2018-07-09T07:02:21.675Z,64.58
2018-07-09T07:04:26.453Z,64.55
2018-07-09T07:06:31.586Z,63.22
2018-07-09T07:08:36.480Z,62.77
2018-07-09T07:10:47.872Z,63.43
2018-07-09T07:12:52.803Z,63.11
2018-07-09T07:14:57.697Z,62.06
2018-07-09T07:17:02.628Z,61.31
2018-07-09T07:19:07.487Z,61.33
2018-07-09T07:21:13.588Z,61.43
2018-07-09T07:23:18.416Z,61.59
2018-07-09T07:25:23.959Z,60.86
2018-07-09T07:27:28.746Z,61.50
2018-07-09T07:29:33.535Z,60.01
2018-07-09T07:31:38.694Z,60.69
2018-07-09T07:33:43.516Z,60.03
2018-07-09T07:35:48.353Z,59.83
2018-07-09T07:37:53.505Z,59.41
2018-07-09T07:39:58.348Z,59.19
2018-07-09T07:42:03.261Z,59.08
2018-07-09T07:44:08.112Z,58.32
2018-07-09T07:46:12.893Z,58.28
2018-07-09T07:48:17.868Z,58.89
2018-07-09T07:50:22.835Z,56.51
2018-07-09T07:52:27.666Z,56.40
2018-07-09T07:54:32.647Z,56.44
2018-07-09T07:58:44.952Z,54.70
2018-07-09T08:00:49.860Z,54.26
2018-07-09T08:02:55.488Z,54.31
2018-07-09T08:05:00.312Z,54.48
2018-07-09T08:07:05.273Z,54.27
2018-07-09T08:09:10.224Z,54.79
2018-07-09T08:11:15.225Z,55.08
2018-07-09T08:13:29.351Z,55.20
2018-07-09T08:15:27.117Z,54.10
2018-07-09T08:17:32.159Z,54.06
2018-07-09T08:19:37.262Z,55.02
2018-07-09T08:21:42.148Z,54.57
2018-07-09T08:23:46.978Z,54.65
2018-07-09T08:25:51.863Z,53.80
2018-07-09T08:27:56.657Z,53.59
2018-07-09T08:30:01.777Z,53.59
2018-07-09T08:32:07.985Z,52.68
2018-07-09T08:34:12.881Z,53.47
2018-07-09T08:36:17.780Z,53.30
2018-07-09T08:38:22.782Z,53.75
2018-07-09T08:40:27.721Z,53.62
2018-07-09T08:42:32.657Z,53.80
2018-07-09T08:44:39.413Z,53.83
2018-07-09T08:46:44.314Z,53.71
2018-07-09T08:48:49.266Z,53.03
2018-07-09T08:50:54.720Z,52.84
2018-07-09T08:52:59.751Z,53.05
2018-07-09T08:55:06.522Z,52.83
2018-07-09T08:57:11.365Z,52.02
2018-07-09T08:59:16.191Z,52.32
2018-07-09T09:01:21.108Z,52.77
2018-07-09T09:03:26.049Z,51.88
2018-07-09T09:05:31.118Z,51.37
2018-07-09T09:07:36.282Z,51.18
2018-07-09T09:09:41.503Z,51.17
2018-07-09T09:11:46.267Z,51.26
2018-07-09T09:13:51.565Z,50.29
2018-07-09T09:15:56.558Z,49.05
2018-07-09T09:18:01.901Z,49.73
2018-07-09T09:20:06.825Z,48.86
2018-07-09T09:22:12.628Z,47.49
2018-07-09T09:24:18.029Z,46.95
2018-07-09T09:26:22.945Z,46.90
2018-07-09T09:28:27.769Z,47.63
2018-07-09T09:30:32.760Z,47.15
2018-07-09T09:32:38.180Z,46.65
2018-07-09T09:34:43.852Z,46.33
2018-07-09T09:36:49.745Z,46.24
2018-07-09T09:38:55.017Z,46.73
2018-07-09T09:40:59.899Z,47.19
2018-07-09T09:43:05.511Z,46.21
2018-07-09T09:47:24.285Z,46.14
2018-07-09T09:49:29.815Z,44.98
2018-07-09T09:51:34.787Z,47.92
2018-07-09T09:53:40.108Z,46.26
2018-07-09T09:55:45.350Z,48.21
2018-07-09T09:57:50.535Z,48.33
2018-07-09T09:59:55.621Z,47.91
2018-07-09T10:02:00.638Z,47.37
2018-07-09T10:04:05.433Z,47.93
2018-07-09T10:06:10.445Z,48.27
2018-07-09T10:08:15.294Z,47.20
2018-07-09T10:10:20.098Z,46.52
2018-07-09T10:12:24.940Z,46.44
2018-07-09T10:14:30.522Z,46.78
2018-07-09T10:16:35.387Z,46.22
2018-07-09T10:18:40.480Z,47.98
2018-07-09T10:20:45.322Z,47.34
2018-07-09T10:22:50.198Z,46.53
2018-07-09T10:24:54.975Z,46.90
2018-07-09T10:26:59.834Z,46.60
2018-07-09T10:29:04.611Z,46.71
2018-07-09T10:31:09.560Z,46.07
2018-07-09T10:33:14.405Z,45.71
2018-07-09T10:35:19.220Z,47.31
2018-07-09T10:37:24.022Z,45.75
2018-07-09T10:39:30.131Z,46.39
2018-07-09T10:41:34.984Z,46.28
2018-07-09T10:43:40.080Z,45.95
2018-07-09T10:45:46.359Z,45.37
2018-07-09T10:47:51.337Z,44.94
2018-07-09T10:49:56.395Z,43.79
2018-07-09T10:52:01.244Z,43.62
2018-07-09T10:54:06.020Z,43.22
2018-07-09T10:56:10.877Z,42.99
2018-07-09T10:58:16.123Z,42.82
2018-07-09T11:00:21.251Z,42.66
2018-07-09T11:02:26.265Z,42.72
2018-07-09T11:04:31.231Z,41.87
2018-07-09T11:06:36.012Z,44.00
2018-07-09T11:08:41.168Z,44.67
2018-07-09T11:10:46.256Z,44.88
2018-07-09T11:12:53.879Z,43.85
2018-07-09T11:15:01.053Z,44.98
2018-07-09T11:17:07.010Z,45.12
2018-07-09T11:19:12.403Z,45.90
2018-07-09T11:21:17.394Z,45.48
2018-07-09T11:23:22.620Z,45.45
2018-07-09T11:25:27.876Z,45.83
2018-07-09T11:27:34.306Z,46.20
2018-07-09T11:29:39.359Z,46.59
2018-07-09T11:31:44.542Z,46.05
2018-07-09T11:33:50.315Z,45.43
2018-07-09T11:35:55.828Z,45.19
2018-07-09T11:38:01.590Z,45.91
2018-07-09T11:40:06.400Z,46.03
2018-07-09T11:42:11.222Z,46.29
2018-07-09T11:44:16.160Z,46.07
2018-07-09T11:46:21.240Z,46.21
2018-07-09T11:48:26.104Z,44.24
2018-07-09T11:50:31.345Z,45.21
2018-07-09T11:52:36.804Z,44.86
2018-07-09T11:54:41.785Z,44.15
2018-07-09T11:56:46.539Z,43.36
2018-07-09T11:58:51.424Z,44.56
2018-07-09T12:00:56.700Z,44.82
2018-07-09T12:03:02.185Z,44.77
2018-07-09T12:05:08.186Z,44.39
2018-07-09T12:07:13.584Z,44.55
2018-07-09T12:09:18.624Z,44.85
2018-07-09T12:11:24.496Z,45.00
2018-07-09T12:13:29.611Z,44.81
2018-07-09T12:15:34.433Z,45.39
2018-07-09T12:17:39.996Z,45.41
2018-07-09T12:19:45.424Z,45.01
2018-07-09T12:21:50.369Z,43.82
2018-07-09T12:23:55.671Z,43.73
2018-07-09T12:26:00.940Z,44.97
2018-07-09T12:28:06.157Z,44.43
2018-07-09T12:30:11.070Z,44.89
2018-07-09T12:32:16.576Z,44.97
2018-07-09T12:34:21.669Z,45.00
2018-07-09T12:36:26.636Z,43.73
2018-07-09T12:38:31.862Z,44.07
2018-07-09T12:40:36.606Z,44.27
2018-07-09T12:42:47.030Z,44.59
2018-07-09T12:44:51.946Z,44.82
2018-07-09T12:46:56.768Z,45.34
2018-07-09T12:51:12.222Z,46.20
2018-07-09T12:53:17.222Z,46.95
2018-07-09T12:55:22.187Z,46.83
2018-07-09T12:57:27.157Z,47.19
2018-07-09T12:59:32.022Z,47.21
2018-07-09T13:01:37.118Z,46.81
2018-07-09T13:03:41.970Z,47.74
2018-07-09T13:05:46.832Z,47.62
2018-07-09T13:07:58.094Z,47.62
2018-07-09T13:10:03.008Z,47.48
2018-07-09T13:12:18.237Z,46.23
2018-07-09T13:14:23.071Z,46.57
2018-07-09T13:16:27.961Z,46.78
2018-07-09T13:18:32.889Z,45.85
2018-07-09T13:20:37.850Z,46.07
2018-07-09T13:22:42.666Z,45.59
2018-07-09T13:24:47.431Z,45.63
2018-07-09T13:26:52.216Z,44.85
2018-07-09T13:28:57.117Z,45.68
2018-07-09T13:31:02.018Z,44.38
2018-07-09T13:33:08.596Z,45.37
2018-07-09T13:35:13.448Z,44.95
2018-07-09T13:37:18.373Z,45.96
2018-07-09T13:39:23.488Z,44.50
2018-07-09T13:41:28.632Z,45.17
2018-07-09T13:43:33.869Z,44.16
2018-07-09T13:45:38.918Z,44.39
2018-07-09T13:47:45.137Z,43.48
2018-07-09T13:49:50.139Z,43.47
2018-07-09T13:51:55.131Z,43.73
2018-07-09T13:54:00.067Z,43.41
2018-07-09T13:56:05.272Z,43.69
2018-07-09T13:58:10.371Z,42.84
2018-07-09T14:00:15.493Z,43.81
2018-07-09T14:02:21.431Z,43.79
2018-07-09T14:04:26.341Z,42.97
2018-07-09T14:06:31.180Z,44.66
2018-07-09T14:08:36.619Z,44.90
2018-07-09T14:10:42.196Z,44.74
2018-07-09T14:12:48.292Z,43.75
2018-07-09T14:14:53.108Z,43.63
2018-07-09T14:16:58.937Z,43.67
2018-07-09T14:19:19.023Z,43.57
2018-07-09T14:21:24.403Z,43.26
2018-07-09T14:23:29.719Z,43.40
2018-07-09T14:25:34.652Z,44.59
2018-07-09T14:27:40.747Z,44.95
2018-07-09T14:29:47.033Z,46.05
2018-07-09T14:31:51.932Z,46.82
2018-07-09T14:33:56.969Z,46.50
2018-07-09T14:36:02.883Z,46.06
2018-07-09T14:38:09.905Z,47.22
2018-07-09T14:40:15.246Z,46.80
2018-07-09T14:42:20.058Z,46.80
2018-07-09T14:44:24.940Z,47.12
2018-07-09T14:46:29.830Z,47.33
2018-07-09T14:48:34.759Z,47.41
2018-07-09T14:50:39.522Z,46.87
2018-07-09T14:52:44.400Z,46.88
2018-07-09T14:54:49.330Z,46.77
2018-07-09T14:56:54.299Z,46.53
2018-07-09T14:58:59.199Z,47.22
2018-07-09T15:01:04.083Z,46.21
2018-07-09T15:03:09.020Z,45.57
2018-07-09T15:05:14.529Z,45.57
2018-07-09T15:07:19.436Z,46.31
2018-07-09T15:09:24.362Z,47.08
2018-07-09T15:11:29.205Z,48.17
2018-07-09T15:13:34.466Z,47.90
2018-07-09T15:15:39.304Z,47.26
2018-07-09T15:17:44.266Z,47.21
2018-07-09T15:19:49.469Z,47.10
2018-07-09T15:21:54.434Z,47.05
2018-07-09T15:23:59.432Z,46.47
2018-07-09T15:26:04.375Z,48.16
2018-07-09T15:28:09.978Z,48.38
2018-07-09T15:30:14.726Z,48.34
2018-07-09T15:32:31.058Z,48.60
2018-07-09T15:34:36.108Z,48.94
2018-07-09T15:36:40.895Z,48.79
2018-07-09T15:38:46.049Z,49.26
2018-07-09T15:40:50.963Z,49.70
2018-07-09T15:42:55.944Z,49.77
2018-07-09T15:45:00.873Z,50.18
2018-07-09T15:47:06.067Z,51.21
2018-07-09T15:49:11.076Z,53.00
2018-07-09T15:51:15.893Z,53.31
2018-07-09T15:53:21.108Z,53.70
2018-07-09T15:55:25.846Z,54.34
2018-07-09T15:57:33.313Z,54.87
2018-07-09T15:59:40.873Z,54.84
2018-07-09T16:01:46.467Z,55.79
2018-07-09T16:03:52.600Z,55.41
2018-07-09T16:05:57.561Z,56.18
2018-07-09T16:08:02.409Z,56.59
2018-07-09T16:10:07.707Z,55.55
2018-07-09T16:12:13.825Z,56.02
2018-07-09T16:14:18.855Z,55.96
2018-07-09T16:16:23.709Z,56.11
2018-07-09T16:18:29.180Z,55.69
2018-07-09T16:20:37.312Z,55.22
2018-07-09T16:22:42.635Z,54.91
2018-07-09T16:24:47.389Z,55.00
2018-07-09T16:26:52.158Z,54.88
2018-07-09T16:28:56.954Z,52.86
2018-07-09T16:31:01.792Z,53.65
2018-07-09T16:33:07.187Z,52.82
2018-07-09T16:35:12.966Z,51.63
2018-07-09T16:37:18.548Z,52.19
2018-07-09T16:39:23.537Z,52.09
2018-07-09T16:41:28.477Z,52.03
2018-07-09T16:43:33.989Z,52.05
2018-07-09T16:45:39.026Z,50.76
2018-07-09T16:47:45.214Z,50.79
2018-07-09T16:49:56.299Z,50.87
2018-07-09T16:52:05.512Z,51.69
2018-07-09T16:54:10.605Z,52.75
2018-07-09T16:56:16.898Z,52.69
2018-07-09T16:58:22.053Z,52.36
2018-07-09T17:00:27.709Z,52.01
2018-07-09T17:02:32.502Z,52.59
2018-07-09T17:04:37.543Z,52.42
2018-07-09T17:06:42.488Z,52.95
2018-07-09T17:08:47.336Z,53.83
2018-07-09T17:10:52.119Z,53.77
2018-07-09T17:12:57.076Z,54.60
2018-07-09T17:15:02.529Z,53.30
2018-07-09T17:17:07.432Z,53.06
2018-07-09T17:19:12.243Z,54.22
2018-07-09T17:21:17.026Z,54.63
2018-07-09T17:23:21.905Z,53.95
2018-07-09T17:25:27.254Z,54.64
2018-07-09T17:27:32.461Z,55.43
2018-07-09T17:29:37.507Z,55.31
2018-07-09T17:31:42.367Z,54.96
2018-07-09T17:33:47.316Z,56.58
2018-07-09T17:35:52.512Z,56.17
2018-07-09T17:37:57.519Z,56.78
2018-07-09T17:40:02.583Z,56.35
2018-07-09T17:42:07.668Z,56.70
2018-07-09T17:44:12.658Z,56.80
2018-07-09T17:46:17.846Z,57.03
2018-07-09T17:48:22.685Z,56.33
2018-07-09T17:50:27.591Z,57.39
2018-07-09T17:52:32.629Z,57.19
2018-07-09T17:54:37.466Z,56.85
2018-07-09T17:56:42.252Z,57.42
2018-07-09T17:58:47.016Z,57.76
2018-07-09T18:00:51.848Z,57.54
2018-07-09T18:02:56.653Z,58.30
2018-07-09T18:05:02.050Z,58.68
2018-07-09T18:07:07.245Z,59.11
2018-07-09T18:09:12.089Z,59.12
2018-07-09T18:11:16.984Z,60.16
2018-07-09T18:13:21.822Z,59.96
2018-07-09T18:15:26.947Z,60.74
2018-07-09T18:17:31.852Z,59.83
2018-07-09T18:19:36.964Z,61.15
2018-07-09T18:21:42.372Z,60.70
2018-07-09T18:23:47.611Z,61.38
2018-07-09T18:25:52.748Z,61.77
2018-07-09T18:27:57.772Z,61.47
2018-07-09T18:30:03.920Z,61.77
2018-07-09T18:32:08.827Z,61.47
2018-07-09T18:34:13.785Z,61.87
2018-07-09T18:36:18.900Z,61.62
2018-07-09T18:38:24.838Z,62.30
2018-07-09T18:40:30.335Z,62.79
2018-07-09T18:42:35.766Z,62.05
2018-07-09T18:44:41.083Z,61.81
2018-07-09T18:46:50.666Z,62.35
2018-07-09T18:48:56.025Z,62.13
2018-07-09T18:51:01.231Z,62.08
2018-07-09T18:53:06.219Z,62.16
2018-07-09T18:55:11.391Z,61.87
2018-07-09T18:57:16.788Z,61.10
2018-07-09T18:59:21.988Z,61.34
2018-07-09T19:01:27.094Z,60.80
2018-07-09T19:03:32.729Z,61.01
2018-07-09T19:06:27.364Z,60.96
2018-07-09T19:08:33.655Z,61.38
2018-07-09T19:10:39.410Z,61.16
2018-07-09T19:12:45.051Z,60.76
2018-07-09T19:14:51.232Z,60.96
2018-07-09T19:18:16.123Z,61.38
2018-07-09T19:20:41.148Z,63.10
2018-07-09T19:22:45.235Z,63.63
2018-07-09T19:24:48.768Z,63.43
2018-07-09T19:26:51.845Z,63.60
2018-07-09T19:28:54.902Z,63.97
2018-07-09T19:30:58.143Z,63.73
2018-07-09T19:33:01.268Z,64.47
2018-07-09T19:35:06.006Z,64.24
2018-07-09T19:37:09.690Z,64.03
2018-07-09T19:39:14.466Z,64.01
2018-07-09T19:41:18.727Z,65.10
2018-07-09T19:43:24.397Z,65.00
2018-07-09T19:45:28.265Z,65.47
2018-07-09T19:47:31.488Z,66.11
2018-07-09T19:49:34.937Z,66.81
2018-07-09T19:51:38.926Z,66.00
2018-07-09T19:53:42.852Z,66.67
2018-07-09T19:55:46.307Z,66.74
2018-07-09T19:57:49.948Z,67.49
2018-07-09T19:59:53.820Z,67.56
2018-07-09T20:01:57.271Z,67.33
2018-07-09T20:04:00.315Z,67.80
2018-07-09T20:06:03.272Z,68.17
2018-07-09T20:08:07.139Z,68.11
2018-07-09T20:10:15.046Z,67.95
2018-07-09T20:12:23.127Z,68.68
2018-07-09T20:14:31.104Z,68.97
2018-07-09T20:16:39.148Z,68.00
2018-07-09T20:18:42.100Z,68.39
2018-07-09T20:20:45.500Z,69.09
2018-07-09T20:22:48.556Z,68.83
2018-07-09T20:24:51.508Z,68.87
2018-07-09T20:26:54.502Z,68.94
2018-07-09T20:28:57.449Z,69.73
2018-07-09T20:31:00.469Z,69.39
2018-07-09T20:33:06.504Z,70.59
2018-07-09T20:35:09.401Z,70.34
2018-07-09T20:37:13.989Z,71.15
2018-07-09T20:39:17.634Z,71.38
2018-07-09T20:41:20.558Z,71.05
2018-07-09T20:43:43.066Z,72.58
2018-07-09T20:45:46.173Z,73.04
2018-07-09T20:47:49.181Z,73.27
2018-07-09T20:49:52.067Z,72.55
2018-07-09T20:51:54.982Z,72.75
2018-07-09T20:53:57.964Z,72.64
2018-07-09T20:56:01.102Z,73.06
2018-07-09T20:58:04.149Z,72.69
2018-07-09T21:00:07.165Z,72.06
2018-07-09T21:02:10.110Z,72.49
2018-07-09T21:04:18.971Z,73.05
2018-07-09T21:06:22.662Z,73.19
2018-07-09T21:08:26.240Z,73.02
2018-07-09T21:10:29.576Z,74.09
2018-07-09T21:12:34.721Z,73.26
2018-07-09T21:14:37.740Z,73.44
2018-07-09T21:16:41.054Z,73.62
2018-07-09T21:18:44.263Z,73.86
2018-07-09T21:20:47.128Z,73.56
2018-07-09T21:22:50.357Z,73.31
2018-07-09T21:24:53.564Z,72.84
2018-07-09T21:26:56.505Z,73.23
2018-07-09T21:28:59.480Z,72.58
2018-07-09T21:31:02.427Z,72.49
2018-07-09T21:33:05.400Z,72.41
2018-07-09T21:35:08.364Z,71.27
2018-07-09T21:37:11.273Z,71.00
2018-07-09T21:39:14.197Z,71.01
2018-07-09T21:41:17.125Z,69.76
2018-07-09T21:43:20.083Z,69.57
2018-07-09T21:45:22.947Z,69.73
2018-07-09T21:47:25.889Z,69.36
2018-07-09T21:49:29.016Z,70.35
2018-07-09T21:51:32.523Z,69.28
2018-07-09T21:53:35.572Z,69.74
2018-07-09T21:55:38.647Z,69.04
2018-07-09T21:57:41.610Z,69.16
2018-07-09T21:59:44.605Z,69.97
2018-07-09T22:01:47.575Z,68.50
2018-07-09T22:03:50.468Z,69.18
2018-07-09T22:05:53.496Z,70.21
2018-07-09T22:07:56.417Z,69.97
2018-07-09T22:09:59.436Z,69.60
2018-07-09T22:12:02.379Z,70.13
2018-07-09T22:14:05.495Z,69.92
2018-07-09T22:16:08.367Z,69.84
2018-07-09T22:18:11.370Z,70.02
2018-07-09T22:20:14.566Z,70.00
2018-07-09T22:22:17.605Z,69.86
2018-07-09T22:24:20.750Z,68.36
2018-07-09T22:26:24.635Z,67.01
2018-07-09T22:28:28.479Z,66.40
2018-07-09T22:30:33.617Z,66.15
2018-07-09T22:32:38.732Z,66.86
2018-07-09T22:34:43.589Z,65.75
2018-07-09T22:36:48.439Z,66.08
2018-07-09T22:38:53.177Z,65.99
2018-07-09T22:40:57.863Z,66.17
2018-07-09T22:45:15.378Z,66.66
2018-07-09T22:47:20.084Z,67.08
2018-07-09T22:49:24.749Z,66.29
2018-07-09T22:51:29.656Z,66.87
2018-07-09T22:53:34.435Z,66.19
2018-07-09T22:55:55.829Z,66.82
2018-07-09T22:58:00.814Z,66.11
2018-07-09T23:00:05.739Z,65.01
2018-07-09T23:02:10.601Z,65.00
2018-07-09T23:04:15.404Z,64.93
2018-07-09T23:06:20.206Z,64.45
2018-07-09T23:08:25.007Z,64.64
2018-07-09T23:13:22.227Z,65.19
2018-07-09T23:15:43.606Z,63.99
2018-07-09T23:20:34.691Z,63.93
2018-07-09T23:22:37.524Z,64.24
2018-07-09T23:24:40.420Z,65.03
2018-07-09T23:26:43.426Z,64.85
2018-07-09T23:28:46.292Z,63.73
2018-07-09T23:30:49.272Z,63.74
2018-07-09T23:32:52.115Z,64.22
2018-07-09T23:34:54.918Z,64.43
2018-07-09T23:36:57.774Z,63.94
2018-07-09T23:39:00.669Z,65.28
2018-07-09T23:41:03.512Z,65.46
2018-07-09T23:43:06.419Z,65.78
2018-07-09T23:45:09.253Z,65.76
2018-07-09T23:47:12.191Z,65.76
2018-07-09T23:49:15.025Z,64.69
2018-07-09T23:51:18.018Z,65.44
2018-07-09T23:53:20.889Z,65.22
2018-07-09T23:55:23.732Z,64.30
2018-07-09T23:59:47.287Z,64.17
